Derby, Vermont
Current Conditions -  °F | °C
As of 8:35 AM on Sunday 23 Nov 2014 (Local Time) from KEFK Reporting Station
Haze Haze  
Wind Chill: 38°   Ceiling: 1900
Heat Index: 38°   Visibility: 5mi
Dew Point: 37°   Wind: 3mph
Humidity: 95%   Direction: 230°SW
Pressure: 30.02"   Gusts: NA
Location:  44.96°N, 72.13°W
Report Text: KEFK 231335Z AUTO 23003KT 5SM BR SCT011 OVC019 03/03 A3002 RMK AO2 T00340027
Loading
Personal Weather Stations






























Interactive Weather Map New forecast layout! Learn more

10-Day Weather Forecast

Advertisements
Track Severe Weather on mobile